Time;durP1;ratioP1;P1;durP2;ratioP2;P2;SDS_P1;SDS_P2;PMS_P1;PMS_P2;Temp;Humidity;BMP_temperature;BMP_pressure;BME280_temperature;BME280_humidity;BME280_pressure;Samples;Min_cycle;Max_cycle;Signal;HPM_P1;HPM_P2
2021/12/26 00:00:15;;;;;;;51.30;28.92;;;;;;;;;;5092858;28;20369;-53
2021/12/26 00:02:41;;;;;;;48.42;26.40;;;;;;;;;;5093061;28;20077;-50
2021/12/26 00:05:07;;;;;;;41.90;23.25;;;;;;;;;;5088473;28;20031;-50
2021/12/26 00:07:34;;;;;;;62.70;34.72;;;;;;;;;;5069638;28;20817;-53
2021/12/26 00:10:00;;;;;;;40.35;22.35;;;;;;;;;;5068201;28;20028;-52
2021/12/26 00:12:26;;;;;;;13.10;9.93;;;;;;;;;;5063980;28;20325;-51
2021/12/26 00:14:52;;;;;;;36.47;21.02;;;;;;;;;;5057182;28;20500;-51
2021/12/26 00:17:20;;;;;;;36.75;20.33;;;;;;;;;;5047207;28;20445;-53
2021/12/26 00:19:48;;;;;;;32.58;17.88;;;;;;;;;;5029073;28;20416;-53
2021/12/26 00:22:14;;;;;;;36.38;21.35;;;;;;;;;;5045758;28;20396;-50
2021/12/26 00:24:40;;;;;;;43.10;23.17;;;;;;;;;;5046320;28;20032;-50
2021/12/26 00:27:09;;;;;;;22.73;14.18;;;;;;;;;;5045683;28;20316;-48
2021/12/26 00:29:35;;;;;;;29.45;16.77;;;;;;;;;;5045849;28;20844;-47
2021/12/26 00:32:01;;;;;;;19.52;10.95;;;;;;;;;;5045189;28;20496;-49
2021/12/26 00:34:27;;;;;;;20.23;12.63;;;;;;;;;;5044415;28;20048;-52
2021/12/26 00:36:53;;;;;;;47.65;25.98;;;;;;;;;;5044904;28;20094;-49
2021/12/26 00:39:19;;;;;;;16.02;9.05;;;;;;;;;;5048669;28;20025;-50
2021/12/26 00:41:45;;;;;;;41.67;23.33;;;;;;;;;;5046243;28;20032;-48
2021/12/26 00:44:11;;;;;;;57.65;32.28;;;;;;;;;;5043572;28;20465;-50
2021/12/26 00:46:38;;;;;;;22.27;12.75;;;;;;;;;;5046080;28;20058;-49
2021/12/26 00:49:04;;;;;;;31.17;17.10;;;;;;;;;;5043427;28;20456;-50
2021/12/26 00:51:31;;;;;;;48.67;26.73;;;;;;;;;;5044535;28;20052;-47
2021/12/26 00:53:57;;;;;;;25.17;15.00;;;;;;;;;;5044838;28;20135;-50
2021/12/26 00:56:23;;;;;;;58.50;31.92;;;;;;;;;;5044184;28;20115;-51
2021/12/26 00:58:49;;;;;;;35.92;19.92;;;;;;;;;;5029345;28;20029;-48
2021/12/26 01:01:15;;;;;;;42.80;22.88;;;;;;;;;;5045387;28;20528;-50
2021/12/26 01:03:43;;;;;;;57.63;31.08;;;;;;;;;;5046387;28;20118;-48
2021/12/26 01:06:09;;;;;;;20.15;12.20;;;;;;;;;;5046507;28;20025;-51
2021/12/26 01:08:39;;;;;;;46.40;25.40;;;;;;;;;;5044228;28;20021;-48
2021/12/26 01:11:14;;;;;;;15.77;10.30;;;;;;;;;;5045990;28;20036;-48
2021/12/26 01:13:43;;;;;;;31.15;17.15;;;;;;;;;;5044467;28;20067;-50
2021/12/26 01:16:11;;;;;;;30.30;17.05;;;;;;;;;;5045255;28;20764;-47
2021/12/26 01:18:40;;;;;;;39.47;21.77;;;;;;;;;;5046916;28;20031;-46
2021/12/26 01:21:18;;;;;;;59.90;30.40;;;;;;;;;;5042041;28;20072;-52
2021/12/26 01:23:47;;;;;;;73.32;36.15;;;;;;;;;;5041984;28;20025;-47
2021/12/26 01:26:13;;;;;;;23.30;13.07;;;;;;;;;;5042043;28;20029;-45
2021/12/26 01:28:40;;;;;;;63.08;33.85;;;;;;;;;;5042140;28;20025;-49
2021/12/26 01:31:06;;;;;;;37.05;21.45;;;;;;;;;;5044364;28;20024;-52
2021/12/26 01:33:32;;;;;;;58.05;30.35;;;;;;;;;;5045779;28;20024;-52
2021/12/26 01:35:59;;;;;;;39.72;21.42;;;;;;;;;;5045623;28;20103;-45
2021/12/26 01:38:25;;;;;;;9.40;6.13;;;;;;;;;;5045647;28;20028;-47
2021/12/26 01:40:56;;;;;;;14.10;8.80;;;;;;;;;;5045736;28;20032;-47
2021/12/26 01:43:25;;;;;;;14.73;9.70;;;;;;;;;;5045563;28;20021;-47
2021/12/26 01:45:52;;;;;;;36.25;19.48;;;;;;;;;;5045267;28;20094;-51
2021/12/26 01:48:18;;;;;;;13.80;8.02;;;;;;;;;;5045233;28;20050;-46
2021/12/26 01:50:45;;;;;;;47.03;24.73;;;;;;;;;;5037837;28;20171;-48
2021/12/26 01:53:12;;;;;;;27.25;15.90;;;;;;;;;;5046150;28;20080;-48
2021/12/26 01:55:44;;;;;;;31.17;18.42;;;;;;;;;;5045297;28;20024;-44
2021/12/26 01:58:14;;;;;;;50.45;26.02;;;;;;;;;;5045020;28;20025;-52
2021/12/26 02:00:42;;;;;;;46.38;23.30;;;;;;;;;;5046117;28;20044;-45
2021/12/26 02:03:08;;;;;;;112.57;55.85;;;;;;;;;;5045122;28;20017;-49
2021/12/26 02:05:34;;;;;;;27.75;13.57;;;;;;;;;;5045137;28;20028;-49
2021/12/26 02:08:01;;;;;;;37.80;19.65;;;;;;;;;;5045330;28;20472;-52
2021/12/26 02:10:27;;;;;;;55.33;28.98;;;;;;;;;;5045006;28;20032;-51
2021/12/26 02:12:53;;;;;;;24.25;13.05;;;;;;;;;;5027565;28;20025;-54
2021/12/26 02:15:19;;;;;;;50.88;25.77;;;;;;;;;;5044713;28;20052;-47
2021/12/26 02:17:45;;;;;;;34.45;18.95;;;;;;;;;;5044908;28;20118;-46
2021/12/26 02:20:14;;;;;;;40.55;20.73;;;;;;;;;;5044614;28;20025;-49
2021/12/26 02:22:45;;;;;;;14.57;7.53;;;;;;;;;;5044482;28;20393;-51
2021/12/26 02:27:42;;;;;;;16.33;6.93;;;;;;;;;;5044554;28;20021;-47
2021/12/26 02:30:13;;;;;;;19.95;11.02;;;;;;;;;;5044827;28;20397;-47
2021/12/26 02:32:40;;;;;;;25.55;13.60;;;;;;;;;;5044929;28;20050;-47
2021/12/26 02:35:06;;;;;;;25.65;13.77;;;;;;;;;;5044436;28;20212;-51
2021/12/26 02:37:32;;;;;;;7.82;4.72;;;;;;;;;;5044537;28;20025;-50
2021/12/26 02:39:58;;;;;;;6.13;4.07;;;;;;;;;;5044544;28;20033;-49
2021/12/26 02:42:25;;;;;;;20.85;11.10;;;;;;;;;;5043906;28;20025;-45
2021/12/26 02:44:51;;;;;;;10.45;6.05;;;;;;;;;;5043421;28;20033;-50
2021/12/26 02:47:37;;;;;;;21.92;11.63;;;;;;;;;;5054897;28;20482;-52
2021/12/26 02:50:05;;;;;;;28.65;15.63;;;;;;;;;;5055176;28;20512;-51
2021/12/26 02:52:31;;;;;;;9.02;5.00;;;;;;;;;;5055009;28;20453;-54
2021/12/26 02:55:00;;;;;;;17.50;10.18;;;;;;;;;;5054931;28;20366;-53
2021/12/26 02:57:27;;;;;;;25.42;13.50;;;;;;;;;;5054846;28;20082;-53
2021/12/26 02:59:53;;;;;;;24.08;13.00;;;;;;;;;;5054970;28;20100;-54
2021/12/26 03:02:19;;;;;;;31.60;14.98;;;;;;;;;;5054569;28;20029;-53
2021/12/26 03:04:45;;;;;;;12.13;6.80;;;;;;;;;;5054821;28;20021;-52
2021/12/26 03:07:11;;;;;;;24.58;13.13;;;;;;;;;;5054802;28;20021;-53
2021/12/26 03:09:45;;;;;;;20.95;11.02;;;;;;;;;;5054764;28;20031;-53
2021/12/26 03:12:12;;;;;;;14.70;8.40;;;;;;;;;;5054578;28;20451;-52
2021/12/26 03:14:39;;;;;;;18.50;10.32;;;;;;;;;;5054241;28;20068;-52
2021/12/26 03:17:06;;;;;;;12.35;7.78;;;;;;;;;;5054509;28;20416;-54
2021/12/26 03:19:35;;;;;;;12.95;7.63;;;;;;;;;;5054445;28;20025;-53
2021/12/26 03:22:02;;;;;;;18.23;10.38;;;;;;;;;;5054474;28;20032;-53
2021/12/26 03:24:28;;;;;;;22.23;12.32;;;;;;;;;;5054453;28;20029;-53
2021/12/26 03:27:01;;;;;;;7.10;4.55;;;;;;;;;;5054231;28;20036;-51
2021/12/26 03:29:28;;;;;;;11.30;5.53;;;;;;;;;;5054282;28;20021;-52
2021/12/26 03:31:54;;;;;;;14.70;8.60;;;;;;;;;;5054147;28;20031;-52
2021/12/26 03:34:20;;;;;;;6.97;4.80;;;;;;;;;;5054216;28;20021;-53
2021/12/26 03:36:50;;;;;;;15.52;9.43;;;;;;;;;;5053961;28;20575;-51
2021/12/26 03:39:16;;;;;;;18.92;9.63;;;;;;;;;;5054115;28;20070;-53
2021/12/26 03:41:42;;;;;;;13.70;7.88;;;;;;;;;;5054173;28;20036;-53
2021/12/26 03:44:08;;;;;;;8.35;5.32;;;;;;;;;;5054079;28;20017;-53
2021/12/26 03:46:37;;;;;;;10.63;5.78;;;;;;;;;;5054006;28;20029;-52
2021/12/26 03:49:05;;;;;;;24.98;12.95;;;;;;;;;;5053977;28;20031;-53
2021/12/26 03:51:32;;;;;;;13.45;8.38;;;;;;;;;;5053738;28;20064;-51
2021/12/26 03:53:58;;;;;;;7.53;5.38;;;;;;;;;;5052919;28;20035;-52
2021/12/26 03:56:24;;;;;;;11.98;7.72;;;;;;;;;;5053744;28;20021;-53
2021/12/26 03:58:50;;;;;;;9.32;6.40;;;;;;;;;;5035408;28;20396;-53
2021/12/26 04:01:17;;;;;;;23.75;13.70;;;;;;;;;;5053693;28;20036;-51
2021/12/26 04:03:43;;;;;;;9.55;6.85;;;;;;;;;;5053847;28;20025;-52
2021/12/26 04:06:09;;;;;;;21.48;11.93;;;;;;;;;;5053538;28;20535;-52
2021/12/26 04:08:35;;;;;;;20.08;11.52;;;;;;;;;;5053614;28;20025;-52
2021/12/26 04:11:01;;;;;;;19.58;10.90;;;;;;;;;;5053461;28;20056;-52
2021/12/26 04:13:28;;;;;;;9.23;6.32;;;;;;;;;;5053577;28;20021;-53
2021/12/26 04:15:54;;;;;;;19.63;9.77;;;;;;;;;;5053238;28;20060;-51
2021/12/26 04:18:21;;;;;;;8.32;5.90;;;;;;;;;;5053430;28;20064;-56
2021/12/26 04:20:47;;;;;;;8.57;5.55;;;;;;;;;;5053279;28;20032;-53
2021/12/26 04:23:14;;;;;;;8.50;5.47;;;;;;;;;;5053650;28;20100;-53
2021/12/26 04:25:41;;;;;;;9.90;6.50;;;;;;;;;;5053439;28;20017;-53
2021/12/26 04:28:07;;;;;;;17.73;10.15;;;;;;;;;;5053396;28;20022;-54
2021/12/26 04:30:33;;;;;;;8.70;5.88;;;;;;;;;;5053457;28;20029;-52
2021/12/26 04:33:01;;;;;;;9.57;6.65;;;;;;;;;;5053366;28;20083;-53
2021/12/26 04:35:27;;;;;;;19.58;9.98;;;;;;;;;;5053361;28;20028;-53
2021/12/26 04:37:54;;;;;;;9.23;6.07;;;;;;;;;;5053197;28;20028;-52
2021/12/26 04:40:20;;;;;;;8.35;5.05;;;;;;;;;;5053145;28;20032;-53
2021/12/26 04:42:47;;;;;;;7.85;5.60;;;;;;;;;;5053178;28;20021;-54
2021/12/26 04:45:14;;;;;;;11.30;7.55;;;;;;;;;;5053125;28;20032;-53
2021/12/26 04:47:41;;;;;;;12.15;7.53;;;;;;;;;;5053523;28;20037;-54
2021/12/26 04:50:13;;;;;;;13.52;7.05;;;;;;;;;;5053260;28;20048;-53
2021/12/26 04:52:41;;;;;;;11.55;7.38;;;;;;;;;;5053200;28;20100;-52
2021/12/26 04:55:07;;;;;;;12.27;7.32;;;;;;;;;;5053018;28;20013;-52
2021/12/26 04:57:33;;;;;;;13.73;8.93;;;;;;;;;;5053197;28;20087;-49
2021/12/26 05:00:00;;;;;;;10.43;7.28;;;;;;;;;;5053181;28;20029;-52
2021/12/26 05:02:28;;;;;;;12.38;7.88;;;;;;;;;;5035189;28;20405;-53
2021/12/26 05:04:54;;;;;;;18.63;10.18;;;;;;;;;;5053724;28;20024;-52
2021/12/26 05:07:20;;;;;;;11.73;7.75;;;;;;;;;;5056884;28;20071;-53
2021/12/26 05:09:48;;;;;;;13.20;8.40;;;;;;;;;;5056847;28;20024;-53
2021/12/26 05:12:14;;;;;;;13.63;9.07;;;;;;;;;;5057008;28;20047;-48
2021/12/26 05:14:40;;;;;;;11.35;7.32;;;;;;;;;;5056705;28;20091;-47
2021/12/26 05:17:06;;;;;;;14.35;8.10;;;;;;;;;;5056804;28;20033;-52
2021/12/26 05:19:32;;;;;;;13.70;9.57;;;;;;;;;;5056999;28;20415;-52
2021/12/26 05:21:58;;;;;;;17.90;10.75;;;;;;;;;;5056625;28;20029;-53
2021/12/26 05:24:24;;;;;;;16.35;10.25;;;;;;;;;;5056630;28;20024;-53
2021/12/26 05:26:50;;;;;;;15.20;9.95;;;;;;;;;;5056943;28;20036;-52
2021/12/26 05:29:16;;;;;;;15.07;9.15;;;;;;;;;;5038685;28;20053;-52
2021/12/26 05:31:43;;;;;;;12.65;8.65;;;;;;;;;;5056649;28;20350;-51
2021/12/26 05:34:09;;;;;;;13.07;8.50;;;;;;;;;;5056541;28;20183;-52
2021/12/26 05:36:35;;;;;;;13.32;8.50;;;;;;;;;;5056445;28;20025;-53
2021/12/26 05:39:01;;;;;;;16.60;10.02;;;;;;;;;;5056346;28;20029;-53
2021/12/26 05:41:27;;;;;;;28.17;13.50;;;;;;;;;;5056195;28;20388;-53
2021/12/26 05:43:53;;;;;;;15.30;8.82;;;;;;;;;;5056242;28;20091;-52
2021/12/26 05:46:19;;;;;;;14.90;9.60;;;;;;;;;;5056396;28;20496;-52
2021/12/26 05:48:45;;;;;;;13.00;7.82;;;;;;;;;;5056395;28;20052;-47
2021/12/26 05:51:11;;;;;;;16.30;7.68;;;;;;;;;;5056177;28;20074;-53
2021/12/26 05:53:38;;;;;;;14.10;9.00;;;;;;;;;;5056159;28;20028;-50
2021/12/26 05:56:04;;;;;;;17.85;10.13;;;;;;;;;;5055967;28;20025;-52
2021/12/26 05:58:30;;;;;;;11.05;7.00;;;;;;;;;;5056147;28;20021;-51
2021/12/26 06:00:56;;;;;;;13.18;7.90;;;;;;;;;;5055936;28;20083;-51
2021/12/26 06:03:22;;;;;;;12.30;7.53;;;;;;;;;;5055815;28;20099;-52
2021/12/26 06:05:48;;;;;;;15.27;9.05;;;;;;;;;;5055922;28;20485;-50
2021/12/26 06:08:14;;;;;;;12.35;8.02;;;;;;;;;;5056025;28;20021;-50
2021/12/26 06:10:40;;;;;;;12.60;7.82;;;;;;;;;;5055763;28;20477;-51
2021/12/26 06:13:07;;;;;;;13.48;7.00;;;;;;;;;;5055996;28;20048;-51
2021/12/26 06:15:33;;;;;;;15.02;7.70;;;;;;;;;;5055440;28;20051;-51
2021/12/26 06:17:59;;;;;;;12.30;7.35;;;;;;;;;;5054636;28;20481;-51
2021/12/26 06:20:25;;;;;;;13.20;7.72;;;;;;;;;;5055567;28;20126;-51
2021/12/26 06:22:51;;;;;;;15.00;8.35;;;;;;;;;;5055465;28;20032;-53
2021/12/26 06:25:17;;;;;;;11.75;7.38;;;;;;;;;;5055705;28;20021;-51
2021/12/26 06:27:44;;;;;;;12.73;8.27;;;;;;;;;;5038010;28;20024;-49
2021/12/26 06:30:10;;;;;;;20.27;9.32;;;;;;;;;;5055513;28;20043;-52
2021/12/26 06:32:37;;;;;;;15.40;8.32;;;;;;;;;;5055429;28;20428;-52
2021/12/26 06:35:03;;;;;;;14.75;8.52;;;;;;;;;;5055838;28;20029;-52
2021/12/26 06:37:30;;;;;;;12.50;7.63;;;;;;;;;;5055218;28;20031;-52
2021/12/26 06:39:56;;;;;;;12.05;7.50;;;;;;;;;;5055268;28;20526;-51
2021/12/26 06:42:22;;;;;;;10.77;7.60;;;;;;;;;;5055144;28;20033;-52
2021/12/26 06:44:49;;;;;;;11.55;7.28;;;;;;;;;;5055008;28;20107;-51
2021/12/26 06:47:15;;;;;;;11.70;6.90;;;;;;;;;;5055242;28;20029;-51
2021/12/26 06:49:42;;;;;;;10.80;6.88;;;;;;;;;;5055226;28;20377;-51
2021/12/26 06:52:08;;;;;;;14.85;8.88;;;;;;;;;;5054938;28;20488;-52
2021/12/26 06:54:36;;;;;;;11.55;8.07;;;;;;;;;;5054919;28;20017;-51
2021/12/26 06:57:03;;;;;;;11.55;7.30;;;;;;;;;;5054755;28;20029;-52
2021/12/26 06:59:30;;;;;;;11.20;6.95;;;;;;;;;;5055084;28;20024;-52
2021/12/26 07:01:56;;;;;;;12.52;7.65;;;;;;;;;;5054928;28;20114;-51
2021/12/26 07:04:22;;;;;;;13.73;7.28;;;;;;;;;;5054784;28;20070;-52
2021/12/26 07:06:48;;;;;;;11.35;6.82;;;;;;;;;;5054742;28;20031;-53
2021/12/26 07:09:14;;;;;;;14.93;8.52;;;;;;;;;;5054909;28;20496;-51
2021/12/26 07:11:41;;;;;;;18.02;9.70;;;;;;;;;;5054527;28;20029;-51
2021/12/26 07:14:07;;;;;;;14.30;9.45;;;;;;;;;;5054324;28;20550;-52
2021/12/26 07:16:34;;;;;;;16.23;9.70;;;;;;;;;;5054606;28;20486;-51
2021/12/26 07:19:00;;;;;;;13.80;8.50;;;;;;;;;;5054627;28;20408;-52
2021/12/26 07:21:26;;;;;;;15.95;8.77;;;;;;;;;;5054354;28;20037;-52
2021/12/26 07:23:52;;;;;;;14.55;8.60;;;;;;;;;;5054315;28;20447;-51
2021/12/26 07:26:18;;;;;;;17.42;9.50;;;;;;;;;;5054324;28;20362;-52
2021/12/26 07:28:44;;;;;;;18.65;9.93;;;;;;;;;;5054168;28;20028;-52
2021/12/26 07:31:10;;;;;;;18.48;10.45;;;;;;;;;;5054248;28;20426;-52
2021/12/26 07:33:37;;;;;;;20.98;10.88;;;;;;;;;;5054163;28;20119;-52
2021/12/26 07:36:04;;;;;;;17.67;9.82;;;;;;;;;;5054304;28;20029;-50
2021/12/26 07:38:30;;;;;;;20.85;11.52;;;;;;;;;;5054030;28;20021;-52
2021/12/26 07:40:56;;;;;;;29.55;14.38;;;;;;;;;;5053952;28;20397;-51
2021/12/26 07:43:22;;;;;;;22.70;11.93;;;;;;;;;;5054028;28;20685;-51
2021/12/26 07:45:48;;;;;;;23.60;13.02;;;;;;;;;;5053799;28;20499;-52
2021/12/26 07:48:14;;;;;;;17.55;10.00;;;;;;;;;;5053914;28;20036;-51
2021/12/26 07:50:42;;;;;;;15.57;9.00;;;;;;;;;;5054026;28;20029;-52
2021/12/26 07:53:11;;;;;;;16.10;10.18;;;;;;;;;;5053852;28;20024;-52
2021/12/26 07:55:38;;;;;;;16.15;10.38;;;;;;;;;;5053714;28;20083;-53
2021/12/26 07:58:04;;;;;;;18.42;8.80;;;;;;;;;;5066225;28;20048;-48
2021/12/26 08:00:30;;;;;;;15.95;9.60;;;;;;;;;;5073181;28;20032;-54
2021/12/26 08:02:57;;;;;;;20.88;12.02;;;;;;;;;;5070462;28;20044;-50
2021/12/26 08:05:24;;;;;;;23.20;14.18;;;;;;;;;;5073217;28;20441;-51
2021/12/26 08:07:50;;;;;;;28.17;14.43;;;;;;;;;;5073060;28;20016;-53
2021/12/26 08:10:17;;;;;;;36.20;16.70;;;;;;;;;;5070325;28;20016;-52
2021/12/26 08:12:43;;;;;;;18.92;11.88;;;;;;;;;;5072622;28;20476;-52
2021/12/26 08:15:09;;;;;;;21.85;13.23;;;;;;;;;;5072612;28;20094;-54
2021/12/26 08:17:36;;;;;;;26.98;16.33;;;;;;;;;;5072616;28;20024;-52
2021/12/26 08:20:02;;;;;;;31.50;19.02;;;;;;;;;;5072879;28;20017;-54
2021/12/26 08:22:28;;;;;;;22.42;12.57;;;;;;;;;;5072803;28;20025;-53
2021/12/26 08:24:55;;;;;;;21.05;12.48;;;;;;;;;;5072917;28;20191;-53
2021/12/26 08:27:21;;;;;;;24.83;14.60;;;;;;;;;;5072842;28;20403;-52
2021/12/26 08:29:47;;;;;;;31.65;16.85;;;;;;;;;;5072771;28;20078;-53
2021/12/26 08:32:15;;;;;;;41.15;24.02;;;;;;;;;;5072748;28;20035;-52
2021/12/26 08:34:43;;;;;;;23.08;13.15;;;;;;;;;;5072728;28;20019;-52
2021/12/26 08:37:09;;;;;;;30.83;19.08;;;;;;;;;;5069995;28;20055;-51
2021/12/26 08:39:37;;;;;;;45.40;26.65;;;;;;;;;;5072236;28;20017;-52
2021/12/26 08:42:04;;;;;;;42.35;24.15;;;;;;;;;;5072505;28;20043;-53
2021/12/26 08:44:30;;;;;;;32.22;17.50;;;;;;;;;;5070063;28;20070;-52
2021/12/26 08:46:56;;;;;;;35.15;18.05;;;;;;;;;;5072595;28;20028;-52
2021/12/26 08:49:23;;;;;;;32.13;18.48;;;;;;;;;;5072442;28;20021;-54
2021/12/26 08:51:49;;;;;;;36.95;19.58;;;;;;;;;;5072694;28;20025;-54
2021/12/26 08:54:15;;;;;;;32.05;16.70;;;;;;;;;;5072431;28;20024;-54
2021/12/26 08:56:41;;;;;;;30.63;16.75;;;;;;;;;;5072119;28;20017;-53
2021/12/26 08:59:08;;;;;;;26.30;15.35;;;;;;;;;;5072553;28;20401;-52
2021/12/26 09:01:34;;;;;;;23.15;13.05;;;;;;;;;;5072250;28;20031;-50
2021/12/26 09:04:01;;;;;;;27.60;16.90;;;;;;;;;;5072408;28;20059;-50
2021/12/26 09:06:27;;;;;;;32.15;18.13;;;;;;;;;;5072412;28;20021;-51
2021/12/26 09:08:53;;;;;;;23.70;13.57;;;;;;;;;;5072134;28;20094;-51
2021/12/26 09:11:19;;;;;;;26.00;14.80;;;;;;;;;;5072287;28;20399;-49
2021/12/26 09:13:45;;;;;;;24.80;13.82;;;;;;;;;;5072130;28;20019;-51
2021/12/26 09:16:11;;;;;;;30.05;15.95;;;;;;;;;;5069366;28;20045;-49
2021/12/26 09:18:38;;;;;;;33.92;17.55;;;;;;;;;;5072375;28;20024;-53
2021/12/26 09:21:04;;;;;;;39.80;17.45;;;;;;;;;;5072209;28;20119;-52
2021/12/26 09:23:30;;;;;;;55.83;21.77;;;;;;;;;;5065988;28;20021;-51
2021/12/26 09:25:56;;;;;;;52.25;19.98;;;;;;;;;;5041886;28;20081;-46
2021/12/26 09:28:22;;;;;;;60.53;20.63;;;;;;;;;;5041842;28;20351;-48
2021/12/26 09:30:48;;;;;;;58.50;21.67;;;;;;;;;;5042429;28;20024;-50
2021/12/26 09:33:19;;;;;;;52.88;18.83;;;;;;;;;;5042988;28;20024;-46
2021/12/26 09:35:46;;;;;;;27.48;13.40;;;;;;;;;;5043138;28;20021;-52
2021/12/26 09:38:13;;;;;;;33.33;14.63;;;;;;;;;;5041636;28;20029;-52
2021/12/26 09:40:39;;;;;;;36.22;16.17;;;;;;;;;;5041897;28;20072;-49
2021/12/26 09:43:05;;;;;;;70.05;26.30;;;;;;;;;;5042142;28;20159;-44
2021/12/26 09:45:31;;;;;;;50.13;22.77;;;;;;;;;;5041953;28;20513;-43
2021/12/26 09:47:57;;;;;;;39.60;18.67;;;;;;;;;;5041689;28;20029;-43
2021/12/26 09:50:24;;;;;;;46.70;18.40;;;;;;;;;;5042243;28;21033;-47
2021/12/26 09:52:52;;;;;;;66.30;26.50;;;;;;;;;;5043729;28;20385;-46
2021/12/26 09:55:19;;;;;;;66.65;31.15;;;;;;;;;;5045614;28;20021;-48
2021/12/26 09:57:45;;;;;;;82.80;38.17;;;;;;;;;;5046530;28;20574;-48
2021/12/26 10:00:29;;;;;;;61.97;27.30;;;;;;;;;;5045324;28;20033;-48
2021/12/26 10:03:14;;;;;;;48.60;22.08;;;;;;;;;;5044970;28;20051;-51
2021/12/26 10:06:01;;;;;;;50.05;25.75;;;;;;;;;;5045316;28;20484;-54
2021/12/26 10:08:28;;;;;;;70.80;34.45;;;;;;;;;;5045170;28;20025;-53
2021/12/26 10:11:11;;;;;;;36.95;18.25;;;;;;;;;;5045365;28;20393;-52
2021/12/26 10:13:51;;;;;;;37.30;18.02;;;;;;;;;;5044900;28;20032;-48
2021/12/26 10:16:19;;;;;;;32.90;17.33;;;;;;;;;;5044807;28;20104;-45
2021/12/26 10:18:45;;;;;;;28.02;15.40;;;;;;;;;;5044864;28;20021;-50
2021/12/26 10:21:30;;;;;;;38.75;21.15;;;;;;;;;;5044797;28;20037;-49
2021/12/26 10:24:01;;;;;;;51.38;24.50;;;;;;;;;;5044712;28;20423;-48
2021/12/26 10:26:31;;;;;;;56.95;24.60;;;;;;;;;;5045989;28;20025;-42
2021/12/26 10:29:18;;;;;;;57.05;25.17;;;;;;;;;;5044779;28;20582;-47
2021/12/26 10:31:46;;;;;;;44.08;20.10;;;;;;;;;;5045007;28;20029;-42
2021/12/26 10:34:17;;;;;;;72.15;36.50;;;;;;;;;;5044868;28;20044;-51
2021/12/26 10:36:46;;;;;;;70.80;31.27;;;;;;;;;;5044688;28;20035;-50
2021/12/26 10:39:14;;;;;;;54.53;23.88;;;;;;;;;;5044390;28;20021;-54
2021/12/26 10:41:42;;;;;;;85.32;31.90;;;;;;;;;;5045462;28;20039;-48
2021/12/26 10:44:18;;;;;;;43.20;21.10;;;;;;;;;;5044642;28;20135;-51
2021/12/26 10:46:47;;;;;;;40.92;17.58;;;;;;;;;;5044431;28;20032;-47
2021/12/26 10:49:27;;;;;;;41.97;16.88;;;;;;;;;;5044651;28;20028;-50
2021/12/26 10:51:54;;;;;;;36.77;16.80;;;;;;;;;;5044614;28;20035;-46
2021/12/26 10:54:25;;;;;;;41.90;17.63;;;;;;;;;;5044085;28;20300;-46
2021/12/26 10:57:05;;;;;;;34.67;15.40;;;;;;;;;;5044353;28;20063;-45
2021/12/26 10:59:31;;;;;;;36.58;17.63;;;;;;;;;;5044206;28;20035;-52
2021/12/26 11:01:57;;;;;;;34.40;17.15;;;;;;;;;;5043979;28;20094;-48
2021/12/26 11:04:26;;;;;;;36.28;18.90;;;;;;;;;;5043695;28;20481;-48
2021/12/26 11:07:03;;;;;;;32.63;17.25;;;;;;;;;;5044289;28;20520;-46
2021/12/26 11:09:30;;;;;;;28.00;15.07;;;;;;;;;;5043977;28;20029;-43
2021/12/26 11:12:04;;;;;;;30.92;16.25;;;;;;;;;;5044036;28;20076;-47
2021/12/26 11:14:30;;;;;;;41.47;20.08;;;;;;;;;;5052501;28;20052;-50
2021/12/26 11:16:56;;;;;;;52.10;27.00;;;;;;;;;;5054431;28;20075;-45
2021/12/26 11:19:41;;;;;;;43.60;23.38;;;;;;;;;;5054474;28;20028;-50
2021/12/26 11:22:08;;;;;;;36.28;20.50;;;;;;;;;;5054537;28;20040;-52
2021/12/26 11:24:35;;;;;;;42.60;21.20;;;;;;;;;;5054173;28;20017;-46
2021/12/26 11:27:02;;;;;;;50.70;25.55;;;;;;;;;;5036008;28;20040;-47
2021/12/26 11:29:28;;;;;;;43.67;22.55;;;;;;;;;;5054227;28;20024;-50
2021/12/26 11:31:55;;;;;;;61.38;32.58;;;;;;;;;;5054170;28;20029;-49
2021/12/26 11:34:21;;;;;;;49.50;25.60;;;;;;;;;;5054109;28;20362;-50
2021/12/26 11:36:50;;;;;;;52.85;28.48;;;;;;;;;;5054108;28;20039;-49
2021/12/26 11:39:17;;;;;;;40.72;22.73;;;;;;;;;;5053925;28;20029;-56
2021/12/26 11:42:01;;;;;;;30.42;18.55;;;;;;;;;;5053963;28;20033;-53
2021/12/26 11:44:41;;;;;;;33.22;16.85;;;;;;;;;;5054069;28;20028;-51
2021/12/26 11:47:24;;;;;;;35.95;18.02;;;;;;;;;;5054137;28;20061;-53
2021/12/26 11:50:01;;;;;;;24.70;12.20;;;;;;;;;;5056431;28;20082;-49
2021/12/26 11:52:48;;;;;;;21.42;12.20;;;;;;;;;;5071842;28;20039;-52
2021/12/26 11:55:14;;;;;;;20.70;12.13;;;;;;;;;;5072179;28;20027;-50
2021/12/26 11:57:51;;;;;;;34.47;17.98;;;;;;;;;;5073561;28;20049;-59
2021/12/26 12:00:19;;;;;;;29.70;16.80;;;;;;;;;;5055598;28;20025;-49
2021/12/26 12:02:50;;;;;;;26.88;14.40;;;;;;;;;;5073436;28;20039;-53
2021/12/26 12:05:36;;;;;;;29.00;14.55;;;;;;;;;;5072526;28;20384;-51
2021/12/26 12:08:22;;;;;;;22.52;13.10;;;;;;;;;;5056304;28;20060;-52
2021/12/26 12:10:55;;;;;;;27.15;13.98;;;;;;;;;;5056547;28;20043;-53
2021/12/26 12:13:23;;;;;;;32.38;17.60;;;;;;;;;;5073491;28;20028;-46
2021/12/26 12:15:54;;;;;;;35.42;19.23;;;;;;;;;;5072254;28;20173;-50
2021/12/26 12:18:27;;;;;;;29.58;15.90;;;;;;;;;;5073194;28;20025;-49
2021/12/26 12:21:09;;;;;;;36.47;19.55;;;;;;;;;;5073342;28;20036;-53
2021/12/26 12:23:35;;;;;;;36.38;18.50;;;;;;;;;;5073264;28;20020;-46
2021/12/26 12:26:01;;;;;;;45.20;21.00;;;;;;;;;;5073376;28;20449;-50
2021/12/26 12:28:32;;;;;;;88.10;39.28;;;;;;;;;;5073398;28;20024;-44
2021/12/26 12:30:58;;;;;;;62.63;32.83;;;;;;;;;;5073224;28;20078;-49
2021/12/26 12:33:28;;;;;;;48.15;24.50;;;;;;;;;;5073358;28;20108;-50
2021/12/26 12:36:03;;;;;;;51.85;25.27;;;;;;;;;;5073487;28;20033;-52
2021/12/26 12:38:31;;;;;;;35.45;18.92;;;;;;;;;;5073320;28;20032;-51
2021/12/26 12:40:58;;;;;;;29.52;17.08;;;;;;;;;;5073256;28;20060;-51
2021/12/26 12:43:26;;;;;;;42.25;21.52;;;;;;;;;;5073306;28;20024;-50
2021/12/26 12:45:56;;;;;;;37.47;20.02;;;;;;;;;;5072590;28;20047;-52
2021/12/26 12:48:33;;;;;;;61.25;31.30;;;;;;;;;;5073333;28;20025;-52
2021/12/26 12:51:05;;;;;;;38.70;20.77;;;;;;;;;;5073091;28;20024;-53
2021/12/26 12:53:40;;;;;;;41.97;22.27;;;;;;;;;;5073472;28;20384;-51
2021/12/26 12:56:10;;;;;;;43.47;23.33;;;;;;;;;;5073131;28;20498;-51
2021/12/26 12:58:36;;;;;;;37.67;22.05;;;;;;;;;;5073093;28;20457;-51
2021/12/26 13:01:06;;;;;;;31.20;17.67;;;;;;;;;;5072885;28;20089;-52
2021/12/26 13:03:36;;;;;;;31.88;19.17;;;;;;;;;;5072919;28;20020;-53
2021/12/26 13:06:07;;;;;;;31.08;17.25;;;;;;;;;;5073085;28;20048;-51
2021/12/26 13:08:33;;;;;;;26.00;15.05;;;;;;;;;;5073101;28;20025;-50
2021/12/26 13:11:01;;;;;;;21.88;12.85;;;;;;;;;;5072817;28;20070;-48
2021/12/26 13:13:28;;;;;;;29.58;17.42;;;;;;;;;;5072894;28;20032;-54
2021/12/26 13:15:57;;;;;;;29.00;16.45;;;;;;;;;;5072451;28;20044;-51
2021/12/26 13:18:24;;;;;;;40.65;21.83;;;;;;;;;;5072946;28;20392;-51
2021/12/26 13:20:52;;;;;;;37.30;20.95;;;;;;;;;;5072669;28;20468;-52
2021/12/26 13:23:18;;;;;;;31.80;18.75;;;;;;;;;;5072883;28;20079;-51
2021/12/26 13:25:45;;;;;;;43.17;21.13;;;;;;;;;;5072986;28;20424;-48
2021/12/26 13:28:11;;;;;;;34.65;20.05;;;;;;;;;;5076612;28;20025;-52
2021/12/26 13:30:42;;;;;;;28.38;15.10;;;;;;;;;;5076924;28;20118;-52
2021/12/26 13:33:38;;;;;;;27.25;15.23;;;;;;;;;;5076550;28;20419;-51
2021/12/26 13:36:08;;;;;;;32.47;18.90;;;;;;;;;;4975574;28;20046;-48
2021/12/26 13:38:34;;;;;;;31.35;17.50;;;;;;;;;;4975844;28;20579;-53
2021/12/26 13:41:00;;;;;;;29.63;16.70;;;;;;;;;;4975713;28;20061;-51
2021/12/26 13:43:34;;;;;;;27.05;15.10;;;;;;;;;;4975408;28;20115;-52
2021/12/26 13:46:01;;;;;;;25.83;15.82;;;;;;;;;;4975287;28;20051;-50
2021/12/26 13:48:32;;;;;;;25.38;15.50;;;;;;;;;;4975582;28;20023;-52
2021/12/26 13:50:59;;;;;;;29.77;14.95;;;;;;;;;;4975312;28;20411;-52
2021/12/26 13:53:25;;;;;;;26.65;15.40;;;;;;;;;;4975377;28;20447;-52
2021/12/26 13:55:54;;;;;;;28.65;14.15;;;;;;;;;;4975377;28;20113;-53
2021/12/26 13:58:25;;;;;;;25.90;14.77;;;;;;;;;;4975300;28;20471;-56
2021/12/26 14:00:53;;;;;;;25.48;13.68;;;;;;;;;;4975183;28;20050;-52
2021/12/26 14:03:19;;;;;;;22.77;12.40;;;;;;;;;;4975227;28;20023;-55
2021/12/26 14:05:45;;;;;;;35.88;18.58;;;;;;;;;;4975104;28;20448;-53
2021/12/26 14:08:30;;;;;;;52.70;24.33;;;;;;;;;;4975497;28;20031;-52
2021/12/26 14:11:00;;;;;;;72.45;22.10;;;;;;;;;;4975150;28;20033;-53
2021/12/26 14:13:27;;;;;;;42.03;21.10;;;;;;;;;;5049434;28;20033;-54
2021/12/26 14:15:57;;;;;;;38.63;18.17;;;;;;;;;;5071700;28;20036;-53
2021/12/26 14:18:31;;;;;;;36.20;19.15;;;;;;;;;;5095969;28;20028;-53
2021/12/26 14:20:58;;;;;;;49.22;22.00;;;;;;;;;;5095866;28;20032;-53
2021/12/26 14:23:27;;;;;;;34.80;19.67;;;;;;;;;;5095902;28;20035;-50
2021/12/26 14:26:00;;;;;;;31.13;17.20;;;;;;;;;;5096035;28;20035;-53
2021/12/26 14:28:27;;;;;;;37.05;20.45;;;;;;;;;;5095773;28;20016;-52